createdAt,value
2019-03-02T00:00:44.752Z,85.32
2019-03-02T00:03:15.587Z,85.23
2019-03-02T00:05:45.988Z,86.10
2019-03-02T00:08:42.839Z,85.69
2019-03-02T00:11:17.824Z,85.54
2019-03-02T00:13:46.524Z,85.53
2019-03-02T00:16:16.408Z,85.65
2019-03-02T00:18:48.155Z,85.94
2019-03-02T00:21:31.380Z,86.10
2019-03-02T00:24:03.483Z,86.22
2019-03-02T00:26:45.684Z,86.29
2019-03-02T00:29:13.072Z,86.19
2019-03-02T00:31:41.759Z,86.39
2019-03-02T00:34:10.411Z,86.53
2019-03-02T00:36:39.167Z,86.18
2019-03-02T00:39:08.789Z,86.67
2019-03-02T00:41:38.667Z,86.61
2019-03-02T00:44:07.827Z,86.40
2019-03-02T00:46:36.452Z,85.08
2019-03-02T00:49:05.232Z,84.96
2019-03-02T00:51:33.877Z,85.27
2019-03-02T00:54:02.636Z,85.39
2019-03-02T00:56:31.274Z,84.67
2019-03-02T00:59:00.613Z,84.92
2019-03-02T01:01:30.577Z,84.45
2019-03-02T01:03:59.253Z,85.05
2019-03-02T01:06:27.909Z,83.63
2019-03-02T01:08:57.490Z,84.07
2019-03-02T01:11:26.112Z,85.07
2019-03-02T01:13:56.846Z,85.24
2019-03-02T01:16:25.271Z,84.90
2019-03-02T01:18:59.867Z,84.29
2019-03-02T01:21:28.506Z,85.27
2019-03-02T01:23:59.731Z,84.49
2019-03-02T01:26:27.586Z,84.86
2019-03-02T01:28:56.282Z,85.90
2019-03-02T01:31:24.941Z,86.12
2019-03-02T01:33:53.594Z,86.04
2019-03-02T01:36:22.273Z,86.34
2019-03-02T01:38:53.989Z,86.63
2019-03-02T01:41:21.508Z,87.06
2019-03-02T01:43:50.183Z,86.50
2019-03-02T01:46:18.821Z,86.58
2019-03-02T01:48:47.456Z,86.29
2019-03-02T01:51:16.114Z,86.32
2019-03-02T01:53:45.711Z,86.08
2019-03-02T01:56:15.195Z,85.55
2019-03-02T01:58:43.807Z,85.28
2019-03-02T02:01:12.462Z,85.41
2019-03-02T02:03:43.672Z,85.81
2019-03-02T02:06:11.611Z,82.15
2019-03-02T02:08:40.246Z,83.24
2019-03-02T02:11:08.962Z,85.37
2019-03-02T02:13:38.971Z,86.12
2019-03-02T02:16:07.947Z,86.46
2019-03-02T02:18:36.591Z,86.44
2019-03-02T02:21:05.339Z,86.53
2019-03-02T02:23:33.983Z,86.43
2019-03-02T02:26:02.715Z,86.36
2019-03-02T02:28:32.368Z,86.91
2019-03-02T02:31:06.047Z,87.56
2019-03-02T02:33:32.104Z,87.54
2019-03-02T02:36:00.841Z,87.54
2019-03-02T02:38:29.459Z,87.06
2019-03-02T02:40:58.102Z,86.77
2019-03-02T02:43:26.704Z,86.38
2019-03-02T02:45:55.331Z,85.26
2019-03-02T02:48:26.256Z,83.88
2019-03-02T02:50:54.401Z,84.25
2019-03-02T02:53:23.063Z,83.86
2019-03-02T02:55:51.731Z,83.17
2019-03-02T02:58:20.450Z,82.98
2019-03-02T03:00:50.013Z,83.53
2019-03-02T03:03:20.688Z,82.73
2019-03-02T03:05:54.143Z,83.07
2019-03-02T03:08:20.395Z,82.25
2019-03-02T03:10:49.031Z,82.60
2019-03-02T03:13:17.684Z,83.01
2019-03-02T03:15:48.404Z,83.35
2019-03-02T03:18:17.099Z,82.04
2019-03-02T03:20:48.866Z,81.73
2019-03-02T03:23:20.073Z,82.02
2019-03-02T03:25:46.625Z,81.44
2019-03-02T03:28:15.303Z,81.86
2019-03-02T03:30:44.098Z,82.21
2019-03-02T03:33:12.725Z,82.45
2019-03-02T03:35:41.385Z,82.39
2019-03-02T03:38:10.030Z,82.45
2019-03-02T03:40:38.739Z,83.22
2019-03-02T03:43:07.452Z,83.62
2019-03-02T03:45:42.271Z,84.14
2019-03-02T03:48:06.581Z,84.46
2019-03-02T03:50:35.272Z,86.35
2019-03-02T03:53:03.986Z,87.64
2019-03-02T03:55:32.662Z,87.67
2019-03-02T03:58:02.571Z,87.82
2019-03-02T04:00:34.203Z,87.57
2019-03-02T04:03:01.748Z,87.20
2019-03-02T04:05:30.470Z,87.86
2019-03-02T04:07:59.109Z,87.92
2019-03-02T04:10:28.066Z,88.04
2019-03-02T04:13:03.802Z,88.29
2019-03-02T04:15:27.528Z,88.39
2019-03-02T04:17:56.230Z,88.30
2019-03-02T04:20:31.106Z,87.83
2019-03-02T04:23:00.581Z,87.06
2019-03-02T04:25:29.438Z,86.77
2019-03-02T04:27:58.063Z,86.73
2019-03-02T04:30:31.139Z,86.54
2019-03-02T04:32:57.066Z,86.08
2019-03-02T04:35:25.800Z,85.31
2019-03-02T04:37:56.499Z,85.33
2019-03-02T04:40:27.920Z,85.47
2019-03-02T04:42:55.190Z,85.02
2019-03-02T04:45:27.930Z,84.98
2019-03-02T04:47:59.986Z,84.94
2019-03-02T04:50:28.384Z,85.06
2019-03-02T04:52:57.164Z,84.88
2019-03-02T04:55:25.790Z,84.72
2019-03-02T04:57:54.448Z,84.52
2019-03-02T05:00:23.130Z,84.29
2019-03-02T05:02:55.093Z,83.98
2019-03-02T05:05:22.147Z,83.91
2019-03-02T05:07:50.764Z,83.72
2019-03-02T05:10:19.409Z,83.20
2019-03-02T05:12:49.671Z,82.78
2019-03-02T05:15:18.531Z,83.06
2019-03-02T05:17:47.185Z,83.00
2019-03-02T05:20:15.808Z,82.76
2019-03-02T05:22:44.494Z,82.66
2019-03-02T05:25:15.740Z,82.91
2019-03-02T05:27:43.547Z,83.32
2019-03-02T05:30:12.299Z,83.77
2019-03-02T05:32:41.031Z,83.83
2019-03-02T05:35:11.938Z,83.44
2019-03-02T05:37:40.712Z,83.52
2019-03-02T05:40:09.663Z,83.34
2019-03-02T05:42:38.322Z,83.76
2019-03-02T05:45:07.170Z,83.64
2019-03-02T05:47:35.835Z,83.69
2019-03-02T05:50:05.038Z,83.24
2019-03-02T05:52:33.703Z,83.24
2019-03-02T05:55:02.370Z,83.32
2019-03-02T05:57:31.075Z,83.39
2019-03-02T06:00:01.817Z,83.21
2019-03-02T06:02:30.190Z,83.86
2019-03-02T06:04:58.844Z,84.03
2019-03-02T06:07:27.574Z,83.91
2019-03-02T06:09:56.195Z,83.70
2019-03-02T06:12:24.870Z,83.43
2019-03-02T06:14:53.524Z,83.17
2019-03-02T06:17:22.217Z,83.74
2019-03-02T06:19:50.874Z,84.86
2019-03-02T06:22:21.148Z,85.40
2019-03-02T06:24:49.884Z,86.67
2019-03-02T06:27:18.530Z,86.77
2019-03-02T06:29:47.167Z,86.64
2019-03-02T06:32:15.821Z,86.78
2019-03-02T06:34:44.450Z,87.17
2019-03-02T06:37:13.101Z,87.53
2019-03-02T06:39:44.459Z,87.65
2019-03-02T06:42:12.428Z,87.48
2019-03-02T06:44:41.053Z,87.37
2019-03-02T06:47:09.739Z,87.25
2019-03-02T06:49:38.374Z,87.22
2019-03-02T06:52:07.056Z,86.96
2019-03-02T06:54:35.704Z,88.02
2019-03-02T06:57:04.454Z,87.74
2019-03-02T06:59:35.871Z,88.39
2019-03-02T07:02:03.452Z,88.70
2019-03-02T07:04:32.101Z,89.21
2019-03-02T07:07:00.833Z,89.63
2019-03-02T07:09:29.487Z,89.99
2019-03-02T07:11:58.117Z,90.48
2019-03-02T07:14:28.818Z,89.85
2019-03-02T07:16:57.282Z,89.78
2019-03-02T07:19:29.595Z,89.29
2019-03-02T07:21:58.254Z,90.51
2019-03-02T07:24:29.403Z,90.73
2019-03-02T07:26:57.394Z,90.59
2019-03-02T07:29:26.019Z,90.47
2019-03-02T07:31:55.075Z,90.17
2019-03-02T07:34:23.703Z,89.97
2019-03-02T07:36:52.334Z,90.11
2019-03-02T07:39:25.095Z,90.66
2019-03-02T07:41:57.948Z,90.72
2019-03-02T07:44:27.261Z,90.70
2019-03-02T07:47:00.266Z,91.19
2019-03-02T07:49:29.902Z,91.17
2019-03-02T07:52:02.874Z,90.95
2019-03-02T07:54:34.239Z,91.07
2019-03-02T07:57:20.206Z,91.04
2019-03-02T08:00:07.403Z,91.10
2019-03-02T08:02:39.885Z,91.44
2019-03-02T08:05:14.518Z,91.63
2019-03-02T08:07:46.055Z,91.45
2019-03-02T08:10:17.726Z,91.25
2019-03-02T08:12:51.131Z,90.93
2019-03-02T08:15:33.993Z,91.58
2019-03-02T08:18:04.605Z,92.25
2019-03-02T08:20:43.330Z,92.35
2019-03-02T08:23:24.248Z,92.56
2019-03-02T08:25:54.281Z,92.38
2019-03-02T08:28:50.991Z,92.84
2019-03-02T08:31:20.907Z,92.35
2019-03-02T08:33:55.169Z,92.19
2019-03-02T08:36:24.239Z,92.37
2019-03-02T08:38:58.270Z,91.95
2019-03-02T08:41:28.426Z,91.18
2019-03-02T08:43:57.010Z,91.27
2019-03-02T08:46:25.655Z,91.01
2019-03-02T08:48:54.342Z,90.86
2019-03-02T08:51:23.057Z,90.95
2019-03-02T08:53:51.754Z,90.90
2019-03-02T08:56:20.504Z,91.69
2019-03-02T08:58:49.153Z,91.27
2019-03-02T09:01:18.736Z,91.37
2019-03-02T09:03:48.224Z,91.43
2019-03-02T09:06:16.949Z,91.57
2019-03-02T09:08:45.627Z,91.46
2019-03-02T09:11:14.371Z,91.02
2019-03-02T09:13:43.182Z,90.73
2019-03-02T09:16:12.081Z,89.92
2019-03-02T09:18:45.318Z,90.65
2019-03-02T09:21:12.345Z,90.92
2019-03-02T09:23:41.722Z,91.49
2019-03-02T09:26:10.375Z,91.75
2019-03-02T09:28:39.046Z,91.59
2019-03-02T09:31:07.854Z,91.67
2019-03-02T09:33:36.506Z,91.84
2019-03-02T09:36:05.225Z,91.73
2019-03-02T09:38:33.974Z,91.61
2019-03-02T09:41:02.605Z,91.23
2019-03-02T09:43:31.444Z,91.36
2019-03-02T09:46:00.280Z,90.95
2019-03-02T09:48:29.014Z,90.61
2019-03-02T09:50:57.632Z,90.90
2019-03-02T09:53:26.277Z,90.89
2019-03-02T09:55:56.218Z,90.53
2019-03-02T09:58:25.830Z,89.62
2019-03-02T10:00:56.813Z,89.46
2019-03-02T10:03:26.825Z,88.74
2019-03-02T10:05:55.470Z,88.88
2019-03-02T10:08:24.243Z,89.02
2019-03-02T10:10:52.882Z,88.25
2019-03-02T10:13:21.743Z,88.26
2019-03-02T10:15:50.496Z,88.80
2019-03-02T10:18:19.218Z,89.07
2019-03-02T10:20:47.869Z,88.76
2019-03-02T10:23:16.734Z,89.43
2019-03-02T10:25:45.387Z,90.34
2019-03-02T10:28:14.051Z,90.52
2019-03-02T10:30:42.767Z,90.98
2019-03-02T10:33:11.469Z,90.85
2019-03-02T10:35:40.146Z,91.12
2019-03-02T10:38:08.905Z,90.79
2019-03-02T10:40:37.726Z,89.37
2019-03-02T10:43:07.409Z,89.67
2019-03-02T10:45:37.829Z,89.03
2019-03-02T10:48:06.584Z,88.28
2019-03-02T10:50:35.305Z,88.10
2019-03-02T10:53:03.945Z,87.29
2019-03-02T10:55:32.626Z,86.83
2019-03-02T10:58:02.320Z,86.56
2019-03-02T11:00:31.724Z,86.32
2019-03-02T11:03:00.551Z,86.43
2019-03-02T11:05:52.933Z,85.70
2019-03-02T11:08:37.479Z,85.57
2019-03-02T11:11:14.852Z,85.35
2019-03-02T11:14:21.071Z,85.17
2019-03-02T11:16:56.845Z,85.29
2019-03-02T11:20:02.747Z,84.45
2019-03-02T11:22:49.289Z,83.37
2019-03-02T11:25:27.020Z,84.37
2019-03-02T11:28:02.264Z,83.70
2019-03-02T11:30:37.786Z,83.25
2019-03-02T11:33:32.323Z,83.30
2019-03-02T11:36:35.029Z,82.82
2019-03-02T11:39:29.120Z,83.06
2019-03-02T11:42:31.805Z,82.76
2019-03-02T11:45:25.116Z,83.46
2019-03-02T11:48:13.650Z,83.79
2019-03-02T11:51:07.575Z,84.38
2019-03-02T11:54:10.363Z,83.85
2019-03-02T11:56:56.604Z,83.64
2019-03-02T11:59:48.322Z,83.49
2019-03-02T12:02:41.850Z,84.19
2019-03-02T12:05:47.702Z,83.31
2019-03-02T12:08:38.431Z,81.46
2019-03-02T12:11:13.914Z,80.91
2019-03-02T12:13:51.898Z,79.76
2019-03-02T12:16:42.415Z,80.22
2019-03-02T12:19:35.885Z,79.65
2019-03-02T12:22:22.076Z,79.76
2019-03-02T12:25:06.613Z,81.03
2019-03-02T12:28:09.454Z,80.67
2019-03-02T12:30:45.766Z,80.83
2019-03-02T12:33:22.120Z,81.33
2019-03-02T12:35:56.139Z,82.23
2019-03-02T12:38:33.032Z,81.96
2019-03-02T12:41:12.220Z,81.80
2019-03-02T12:44:08.256Z,81.39
2019-03-02T12:47:01.831Z,80.18
2019-03-02T12:49:53.717Z,79.29
2019-03-02T12:52:48.115Z,79.09
2019-03-02T12:55:40.505Z,79.62
2019-03-02T12:58:28.161Z,79.80
2019-03-02T13:01:18.580Z,80.90
2019-03-02T13:04:05.659Z,81.28
2019-03-02T13:06:56.881Z,81.28
2019-03-02T13:09:46.669Z,80.67
2019-03-02T13:12:42.826Z,81.17
2019-03-02T13:15:29.570Z,82.16
2019-03-02T13:18:05.144Z,81.36
2019-03-02T13:20:59.217Z,82.87
2019-03-02T13:23:52.723Z,83.53
2019-03-02T13:26:29.628Z,83.44
2019-03-02T13:29:02.936Z,84.48
2019-03-02T13:32:08.667Z,84.01
2019-03-02T13:34:48.232Z,84.04
2019-03-02T13:37:28.637Z,83.66
2019-03-02T13:40:26.377Z,83.69
2019-03-02T13:43:05.088Z,82.85
2019-03-02T13:45:51.789Z,81.15
2019-03-02T13:48:29.747Z,80.22
2019-03-02T13:51:08.017Z,80.96
2019-03-02T13:53:58.985Z,80.96
2019-03-02T13:56:36.519Z,80.98
2019-03-02T13:59:23.051Z,80.73
2019-03-02T14:02:02.142Z,80.05
2019-03-02T14:04:44.890Z,80.64
2019-03-02T14:07:42.305Z,80.72
2019-03-02T14:10:30.479Z,79.56
2019-03-02T14:13:21.422Z,79.78
2019-03-02T14:16:08.000Z,80.65
2019-03-02T14:18:43.751Z,80.30
2019-03-02T14:21:28.856Z,80.50
2019-03-02T14:24:22.406Z,78.98
2019-03-02T14:27:01.685Z,78.29
2019-03-02T14:29:47.163Z,78.01
2019-03-02T14:32:29.532Z,78.03
2019-03-02T14:35:05.206Z,78.23
2019-03-02T14:37:47.865Z,77.75
2019-03-02T14:40:25.038Z,77.74
2019-03-02T14:43:20.044Z,77.84
2019-03-02T14:46:08.627Z,76.22
2019-03-02T14:48:51.116Z,76.84
2019-03-02T14:51:47.797Z,77.45
2019-03-02T14:54:27.311Z,78.78
2019-03-02T14:57:04.584Z,78.77
2019-03-02T14:59:46.863Z,78.76
2019-03-02T15:02:27.647Z,79.50
2019-03-02T15:05:20.375Z,77.80
2019-03-02T15:08:04.821Z,77.80
2019-03-02T15:10:52.470Z,78.21
2019-03-02T15:13:36.665Z,75.52
2019-03-02T15:16:23.158Z,76.04
2019-03-02T15:19:27.147Z,76.87
2019-03-02T15:22:13.761Z,76.89
2019-03-02T15:25:26.075Z,76.22
2019-03-02T15:28:07.778Z,74.50
2019-03-02T15:30:46.299Z,74.20
2019-03-02T15:33:25.961Z,75.09
2019-03-02T15:36:19.689Z,74.67
2019-03-02T15:39:07.319Z,74.05
2019-03-02T15:41:51.151Z,73.09
2019-03-02T15:44:38.805Z,74.73
2019-03-02T15:47:29.310Z,73.57
2019-03-02T15:50:13.551Z,72.86
2019-03-02T15:53:04.764Z,72.96
2019-03-02T15:55:53.325Z,72.53
2019-03-02T15:58:31.983Z,72.68
2019-03-02T16:01:14.152Z,72.41
2019-03-02T16:04:16.827Z,71.42
2019-03-02T16:07:19.678Z,72.08
2019-03-02T16:10:07.228Z,71.74
2019-03-02T16:12:50.182Z,71.95
2019-03-02T16:15:45.234Z,71.00
2019-03-02T16:18:20.913Z,71.11
2019-03-02T16:20:55.678Z,71.19
2019-03-02T16:23:38.676Z,71.61
2019-03-02T16:26:18.218Z,71.51
2019-03-02T16:29:09.835Z,72.02
2019-03-02T16:31:49.677Z,72.05
2019-03-02T16:34:43.980Z,71.17
2019-03-02T16:37:20.446Z,71.63
2019-03-02T16:40:05.481Z,71.32
2019-03-02T16:42:50.953Z,71.30
2019-03-02T16:45:39.745Z,71.36
2019-03-02T16:48:30.149Z,71.45
2019-03-02T16:51:20.611Z,71.12
2019-03-02T16:54:08.265Z,71.24
2019-03-02T16:57:07.971Z,71.80
2019-03-02T17:01:24.832Z,72.09
2019-03-02T17:04:10.925Z,72.33
2019-03-02T17:07:01.445Z,72.33
2019-03-02T17:09:57.882Z,71.81
2019-03-02T17:12:36.204Z,72.11
2019-03-02T17:15:18.939Z,72.85
2019-03-02T17:17:56.459Z,72.56
2019-03-02T17:20:50.327Z,72.87
2019-03-02T17:23:42.577Z,73.05
2019-03-02T17:26:16.463Z,73.50
2019-03-02T17:28:55.212Z,72.91
2019-03-02T17:31:29.804Z,73.31
2019-03-02T17:34:15.939Z,73.83
2019-03-02T17:37:06.414Z,73.63
2019-03-02T17:40:05.893Z,74.30
2019-03-02T17:42:44.850Z,74.56
2019-03-02T17:45:44.770Z,74.83
2019-03-02T17:48:35.320Z,75.39
2019-03-02T17:51:23.064Z,75.04
2019-03-02T17:54:03.639Z,75.45
2019-03-02T17:56:52.810Z,75.75
2019-03-02T17:59:39.777Z,76.45
2019-03-02T18:02:17.043Z,77.02
2019-03-02T18:05:07.944Z,77.57
2019-03-02T18:07:43.288Z,77.91
2019-03-02T18:10:21.342Z,78.47
2019-03-02T18:13:02.269Z,78.83
2019-03-02T18:15:46.741Z,78.99
2019-03-02T18:18:15.583Z,79.34
2019-03-02T18:20:44.433Z,79.97
2019-03-02T18:23:13.136Z,79.75
2019-03-02T18:25:44.799Z,80.16
2019-03-02T18:28:14.074Z,80.66
2019-03-02T18:30:43.721Z,81.17
2019-03-02T18:33:24.395Z,81.26
2019-03-02T18:35:53.561Z,81.96
2019-03-02T18:38:22.269Z,82.38
2019-03-02T18:40:52.181Z,82.68
2019-03-02T18:43:21.047Z,82.51
2019-03-02T18:45:49.808Z,83.02
2019-03-02T18:48:41.620Z,83.67
2019-03-02T18:51:33.965Z,83.88
2019-03-02T18:54:13.635Z,84.25
2019-03-02T18:56:43.697Z,84.79
2019-03-02T18:59:12.384Z,84.59
2019-03-02T19:01:42.280Z,84.64
2019-03-02T19:04:10.975Z,85.35
2019-03-02T19:06:39.793Z,86.31
2019-03-02T19:09:14.629Z,87.61
2019-03-02T19:11:43.514Z,88.34
2019-03-02T19:14:12.304Z,88.82
2019-03-02T19:16:41.206Z,90.08
2019-03-02T19:19:13.293Z,90.67
2019-03-02T19:21:42.096Z,90.41
2019-03-02T19:24:11.207Z,90.46
2019-03-02T19:26:40.010Z,90.61
2019-03-02T19:29:10.850Z,90.84
2019-03-02T19:31:39.708Z,90.29
2019-03-02T19:34:08.480Z,89.77
2019-03-02T19:36:37.331Z,89.99
2019-03-02T19:39:17.159Z,89.78
2019-03-02T19:41:46.038Z,90.50
2019-03-02T19:44:15.939Z,90.41
2019-03-02T19:46:44.751Z,90.21
2019-03-02T19:49:13.630Z,90.65
2019-03-02T19:51:43.275Z,90.28
2019-03-02T19:54:13.364Z,90.34
2019-03-02T19:56:42.291Z,90.16
2019-03-02T19:59:11.052Z,89.81
2019-03-02T20:01:42.429Z,90.06
2019-03-02T20:04:11.315Z,90.17
2019-03-02T20:06:40.113Z,90.54
2019-03-02T20:09:08.927Z,90.87
2019-03-02T20:11:38.028Z,90.20
2019-03-02T20:14:07.848Z,90.67
2019-03-02T20:16:38.693Z,91.03
2019-03-02T20:19:07.525Z,90.94
2019-03-02T20:21:36.383Z,90.76
2019-03-02T20:24:06.436Z,91.12
2019-03-02T20:26:35.400Z,91.69
2019-03-02T20:29:04.384Z,91.46
2019-03-02T20:31:33.313Z,91.23
2019-03-02T20:34:04.096Z,91.08
2019-03-02T20:36:32.932Z,91.40
2019-03-02T20:39:01.707Z,91.24
2019-03-02T20:41:30.628Z,91.24
2019-03-02T20:43:59.864Z,91.35
2019-03-02T20:46:29.480Z,91.30
2019-03-02T20:49:01.089Z,91.24
2019-03-02T20:51:29.938Z,91.26
2019-03-02T20:53:59.161Z,91.26
2019-03-02T20:56:27.853Z,91.21
2019-03-02T20:58:57.971Z,91.22
2019-03-02T21:01:29.185Z,91.06
2019-03-02T21:03:58.005Z,90.30
2019-03-02T21:06:30.548Z,90.75
2019-03-02T21:09:10.616Z,90.86
2019-03-02T21:11:39.937Z,90.83
2019-03-02T21:14:09.224Z,91.12
2019-03-02T21:16:38.177Z,91.44
2019-03-02T21:19:09.062Z,91.25
2019-03-02T21:21:37.897Z,91.30
2019-03-02T21:24:06.699Z,91.71
2019-03-02T21:26:35.488Z,92.05
2019-03-02T21:29:04.361Z,91.88
2019-03-02T21:31:33.095Z,92.05
2019-03-02T21:34:02.049Z,91.91
2019-03-02T21:36:31.005Z,91.91
2019-03-02T21:38:59.839Z,92.05
2019-03-02T21:41:28.655Z,92.11
2019-03-02T21:44:00.146Z,92.05
2019-03-02T21:46:28.912Z,91.66
2019-03-02T21:48:58.140Z,91.91
2019-03-02T21:51:26.931Z,91.99
2019-03-02T21:53:55.840Z,92.18
2019-03-02T21:56:26.143Z,92.27
2019-03-02T21:58:55.014Z,92.30
2019-03-02T22:01:24.011Z,92.35
2019-03-02T22:03:52.824Z,92.50
2019-03-02T22:06:23.787Z,92.89
2019-03-02T22:08:55.064Z,93.24
2019-03-02T22:11:23.874Z,93.55
2019-03-02T22:13:53.602Z,93.52
2019-03-02T22:16:23.365Z,93.55
2019-03-02T22:18:52.227Z,93.84
2019-03-02T22:21:21.442Z,93.97
2019-03-02T22:23:50.191Z,94.13
2019-03-02T22:26:19.030Z,94.26
2019-03-02T22:28:49.169Z,94.28
2019-03-02T22:31:20.711Z,94.29
2019-03-02T22:33:49.516Z,94.17
2019-03-02T22:36:18.315Z,93.93
2019-03-02T22:38:48.408Z,93.68
2019-03-02T22:41:17.307Z,94.01
2019-03-02T22:43:46.665Z,94.10
2019-03-02T22:46:19.256Z,94.08
2019-03-02T22:48:50.854Z,93.67
2019-03-02T22:51:29.407Z,93.62
2019-03-02T22:53:58.142Z,93.24
2019-03-02T22:56:28.192Z,92.89
2019-03-02T22:58:56.050Z,92.91
2019-03-02T23:02:15.638Z,92.83
2019-03-02T23:04:44.898Z,92.54
2019-03-02T23:07:14.669Z,91.94
2019-03-02T23:09:43.881Z,91.16
2019-03-02T23:12:12.952Z,90.96
2019-03-02T23:14:41.806Z,91.08
2019-03-02T23:17:10.686Z,91.24
2019-03-02T23:19:40.390Z,91.13
2019-03-02T23:22:09.260Z,91.44
2019-03-02T23:24:38.904Z,91.16
2019-03-02T23:27:08.652Z,91.28
2019-03-02T23:29:37.584Z,91.37
2019-03-02T23:32:06.525Z,91.02
2019-03-02T23:34:37.356Z,90.63
2019-03-02T23:37:05.779Z,90.49
2019-03-02T23:39:39.012Z,90.68
2019-03-02T23:42:07.823Z,91.23
2019-03-02T23:44:36.646Z,91.16
2019-03-02T23:47:05.469Z,91.03
2019-03-02T23:49:34.423Z,90.86
2019-03-02T23:52:03.431Z,90.35
2019-03-02T23:54:33.578Z,90.00
2019-03-02T23:57:02.459Z,90.12
2019-03-02T23:59:31.224Z,89.71
